createdAt,value
2023-03-30T00:02:54.076Z,12.20
2023-03-30T00:07:56.087Z,8.30
2023-03-30T00:12:58.730Z,9.30
2023-03-30T00:18:01.829Z,6.50
2023-03-30T00:23:03.819Z,10.50
2023-03-30T00:28:05.843Z,7.60
2023-03-30T00:33:07.815Z,8.80
2023-03-30T00:38:09.736Z,10.00
2023-03-30T00:43:12.253Z,9.00
2023-03-30T00:48:22.243Z,9.20
2023-03-30T00:53:28.981Z,6.70
2023-03-30T00:58:32.103Z,10.80
2023-03-30T01:03:45.950Z,5.20
2023-03-30T01:08:48.089Z,5.40
2023-03-30T01:13:57.709Z,8.70
2023-03-30T01:19:24.683Z,6.80
2023-03-30T01:24:53.903Z,5.70
2023-03-30T01:30:12.916Z,7.60
2023-03-30T01:35:46.758Z,9.60
2023-03-30T01:41:13.403Z,6.80
2023-03-30T01:46:30.912Z,5.70
2023-03-30T01:51:40.946Z,7.60
2023-03-30T01:56:59.482Z,6.80
2023-03-30T02:02:07.291Z,6.30
2023-03-30T02:07:17.875Z,9.40
2023-03-30T02:12:20.731Z,5.60
2023-03-30T02:17:24.663Z,6.20
2023-03-30T02:22:29.543Z,5.90
2023-03-30T02:27:32.958Z,5.80
2023-03-30T02:32:45.743Z,7.10
2023-03-30T02:37:57.310Z,7.00
2023-03-30T02:43:36.686Z,5.90
2023-03-30T02:48:53.835Z,6.70
2023-03-30T02:54:06.346Z,5.60
2023-03-30T02:59:34.316Z,57.20
2023-03-30T03:04:37.422Z,71.30
2023-03-30T03:10:06.718Z,131.50
2023-03-30T03:15:09.046Z,43.60
2023-03-30T03:20:13.956Z,101.10
2023-03-30T03:25:16.579Z,62.20
2023-03-30T03:30:28.054Z,15.20
2023-03-30T03:35:39.687Z,16.00
2023-03-30T03:40:42.602Z,16.50
2023-03-30T03:45:48.770Z,13.50
2023-03-30T03:50:56.158Z,8.30
2023-03-30T03:55:58.532Z,13.40
2023-03-30T04:06:19.748Z,9.90
2023-03-30T04:11:22.316Z,9.60
2023-03-30T04:16:29.799Z,8.10
2023-03-30T04:21:50.260Z,13.40
2023-03-30T04:27:17.126Z,13.60
2023-03-30T04:32:47.233Z,9.40
2023-03-30T04:38:02.275Z,12.70
2023-03-30T04:43:07.299Z,11.50
2023-03-30T04:48:23.833Z,9.20
2023-03-30T04:53:44.386Z,12.70
2023-03-30T04:59:06.345Z,9.50
2023-03-30T05:04:27.123Z,7.70
2023-03-30T05:09:49.151Z,12.70
2023-03-30T05:14:57.024Z,10.30
2023-03-30T05:20:12.376Z,9.50
2023-03-30T05:25:32.770Z,11.70
2023-03-30T05:30:41.120Z,11.50
2023-03-30T05:36:21.634Z,14.10
2023-03-30T05:41:41.093Z,11.70
2023-03-30T05:46:54.143Z,21.70
2023-03-30T05:52:08.699Z,15.70
2023-03-30T05:57:36.632Z,17.10
2023-03-30T06:03:14.434Z,15.60
2023-03-30T06:08:17.044Z,24.20
2023-03-30T06:13:19.765Z,11.90
2023-03-30T06:18:25.801Z,11.60
2023-03-30T06:23:33.851Z,33.00
2023-03-30T06:28:38.222Z,32.90
2023-03-30T06:33:41.961Z,8.70
2023-03-30T06:38:45.346Z,6.80
2023-03-30T06:43:50.791Z,12.30
2023-03-30T06:48:55.103Z,10.50
2023-03-30T06:54:20.240Z,10.80
2023-03-30T06:59:28.303Z,9.00
2023-03-30T07:05:10.479Z,13.90
2023-03-30T07:10:23.132Z,11.00
2023-03-30T07:15:25.493Z,16.30
2023-03-30T07:20:27.877Z,11.30
2023-03-30T07:25:51.786Z,14.20
2023-03-30T07:31:08.172Z,11.10
2023-03-30T07:36:11.081Z,27.10
2023-03-30T07:41:16.279Z,11.70
2023-03-30T07:46:18.800Z,14.70
2023-03-30T07:51:22.763Z,8.60
2023-03-30T07:56:33.465Z,7.30
2023-03-30T08:01:36.249Z,8.70
2023-03-30T08:06:52.830Z,5.30
2023-03-30T08:11:54.692Z,4.90
2023-03-30T08:16:57.156Z,6.90
2023-03-30T08:22:01.786Z,6.20
2023-03-30T08:27:04.281Z,5.20
2023-03-30T08:32:07.023Z,4.70
2023-03-30T08:37:08.766Z,5.50
2023-03-30T08:42:33.985Z,4.50
2023-03-30T08:47:41.790Z,5.90
2023-03-30T08:52:44.292Z,6.70
2023-03-30T08:58:01.618Z,5.30
2023-03-30T09:03:16.219Z,5.20
2023-03-30T09:08:22.818Z,5.70
2023-03-30T09:13:29.136Z,4.70
2023-03-30T09:18:39.716Z,8.80
2023-03-30T09:23:41.841Z,7.40
2023-03-30T09:28:54.963Z,6.00
2023-03-30T09:34:03.139Z,3.80
2023-03-30T09:39:10.812Z,7.70
2023-03-30T09:44:19.574Z,4.50
2023-03-30T09:49:21.337Z,4.60
2023-03-30T09:54:24.018Z,5.30
2023-03-30T09:59:38.960Z,5.80
2023-03-30T10:04:53.162Z,8.10
2023-03-30T10:09:57.889Z,7.60
2023-03-30T10:15:02.627Z,8.90
2023-03-30T10:20:24.697Z,5.10
2023-03-30T10:25:29.682Z,8.20
2023-03-30T10:30:33.416Z,5.70
2023-03-30T10:35:38.220Z,10.80
2023-03-30T10:40:43.008Z,6.80
2023-03-30T10:45:52.113Z,6.90
2023-03-30T10:51:06.283Z,4.30
2023-03-30T10:56:20.527Z,5.80
2023-03-30T11:01:38.275Z,9.80
2023-03-30T11:06:43.049Z,5.90
2023-03-30T11:11:51.738Z,6.20
2023-03-30T11:17:01.745Z,4.50
2023-03-30T11:22:16.792Z,8.50
2023-03-30T11:27:31.959Z,8.10
2023-03-30T11:33:06.791Z,6.40
2023-03-30T11:38:18.441Z,5.90
2023-03-30T11:43:22.734Z,6.00
2023-03-30T11:48:42.848Z,6.40
2023-03-30T11:54:06.308Z,6.90
2023-03-30T11:59:17.769Z,5.20
2023-03-30T12:04:31.256Z,5.70
2023-03-30T12:09:49.722Z,6.90
2023-03-30T12:15:01.239Z,9.30
2023-03-30T12:20:06.996Z,6.90
2023-03-30T12:25:23.677Z,10.40
2023-03-30T12:30:41.631Z,7.70
2023-03-30T12:35:49.740Z,7.20
2023-03-30T12:41:02.023Z,5.80
2023-03-30T12:46:14.079Z,8.90
2023-03-30T12:51:37.118Z,8.30
2023-03-30T12:57:03.794Z,5.90
2023-03-30T13:02:17.811Z,6.30
2023-03-30T13:07:28.762Z,7.80
2023-03-30T13:12:41.657Z,10.50
2023-03-30T13:18:01.793Z,9.70
2023-03-30T13:23:09.695Z,6.50
2023-03-30T13:28:30.342Z,7.80
2023-03-30T13:33:39.315Z,8.70
2023-03-30T13:39:08.613Z,10.70
2023-03-30T13:44:18.110Z,8.90
2023-03-30T13:49:56.790Z,8.30
2023-03-30T13:54:59.346Z,8.40
2023-03-30T14:00:28.455Z,12.20
2023-03-30T14:05:33.253Z,10.70
2023-03-30T14:10:35.242Z,13.80
2023-03-30T14:15:38.803Z,11.50
2023-03-30T14:20:48.338Z,10.40
2023-03-30T14:25:54.827Z,13.10
2023-03-30T14:30:59.356Z,37.60
2023-03-30T14:36:02.427Z,66.60
2023-03-30T14:41:22.873Z,59.20
2023-03-30T14:46:31.852Z,32.70
2023-03-30T14:51:48.016Z,52.00
2023-03-30T14:57:09.024Z,30.60
2023-03-30T15:02:33.274Z,23.90
2023-03-30T15:07:36.664Z,19.80
2023-03-30T15:12:46.361Z,27.90
2023-03-30T15:17:50.507Z,22.70
2023-03-30T15:22:53.171Z,17.80
2023-03-30T15:28:08.715Z,23.20
2023-03-30T15:33:20.389Z,22.90
2023-03-30T15:38:31.683Z,19.40
2023-03-30T15:43:36.825Z,21.00
2023-03-30T15:48:45.661Z,19.80
2023-03-30T15:53:54.446Z,24.40
2023-03-30T15:58:58.292Z,19.10
2023-03-30T16:04:01.785Z,23.20
2023-03-30T16:09:03.750Z,25.70
2023-03-30T16:14:07.547Z,19.80
2023-03-30T16:19:13.424Z,26.60
2023-03-30T16:24:15.543Z,26.30
2023-03-30T16:29:23.691Z,26.30
2023-03-30T16:34:25.966Z,24.10
2023-03-30T16:39:29.591Z,24.00
2023-03-30T16:44:31.499Z,24.20
2023-03-30T16:49:33.457Z,26.30
2023-03-30T16:54:35.314Z,30.50
2023-03-30T16:59:37.028Z,31.10
2023-03-30T17:04:38.835Z,38.10
2023-03-30T17:09:40.582Z,46.60
2023-03-30T17:14:43.085Z,39.20
2023-03-30T17:19:44.886Z,37.70
2023-03-30T17:24:46.599Z,43.30
2023-03-30T17:29:48.339Z,115.40
2023-03-30T17:34:50.389Z,106.60
2023-03-30T17:39:52.282Z,125.40
2023-03-30T17:44:54.245Z,66.00
2023-03-30T17:49:57.509Z,58.70
2023-03-30T17:54:59.313Z,71.60
2023-03-30T18:00:03.777Z,78.70
2023-03-30T18:05:06.560Z,105.00
2023-03-30T18:10:17.473Z,75.10
2023-03-30T18:15:22.752Z,62.80
2023-03-30T18:20:32.881Z,60.10
2023-03-30T18:25:34.591Z,62.70
2023-03-30T18:30:40.520Z,42.90
2023-03-30T18:35:44.314Z,57.60
2023-03-30T18:40:49.479Z,34.90
2023-03-30T18:45:51.544Z,52.20
2023-03-30T18:50:55.352Z,49.60
2023-03-30T18:56:00.884Z,34.30
2023-03-30T19:01:03.009Z,46.50
2023-03-30T19:06:05.449Z,33.90
2023-03-30T19:11:07.686Z,38.70
2023-03-30T19:16:10.326Z,39.80
2023-03-30T19:21:15.755Z,32.60
2023-03-30T19:26:17.453Z,39.80
2023-03-30T19:31:19.329Z,36.40
2023-03-30T19:36:23.306Z,32.10
2023-03-30T19:41:26.894Z,39.40
2023-03-30T19:46:28.648Z,32.80
2023-03-30T19:51:30.818Z,26.50
2023-03-30T19:56:32.583Z,32.20
2023-03-30T20:01:34.299Z,29.00
2023-03-30T20:06:36.006Z,29.10
2023-03-30T20:11:37.775Z,36.60
2023-03-30T20:16:39.594Z,47.80
2023-03-30T20:21:41.661Z,65.80
2023-03-30T20:26:43.416Z,82.20
2023-03-30T20:31:46.311Z,68.60
2023-03-30T20:36:49.938Z,101.30
2023-03-30T20:41:54.140Z,47.20
2023-03-30T20:47:08.635Z,45.10
2023-03-30T20:52:11.806Z,36.80
2023-03-30T20:57:14.116Z,46.00
2023-03-30T21:02:16.910Z,49.10
2023-03-30T21:07:18.839Z,30.10
2023-03-30T21:12:21.275Z,45.40
2023-03-30T21:17:24.803Z,35.20
2023-03-30T21:22:27.992Z,50.90
2023-03-30T21:27:29.731Z,46.90
2023-03-30T21:32:31.741Z,36.60
2023-03-30T21:37:33.767Z,42.70
2023-03-30T21:42:36.859Z,40.00
2023-03-30T21:47:40.851Z,57.20
2023-03-30T21:52:46.177Z,39.00
2023-03-30T21:57:47.935Z,30.80
2023-03-30T22:02:49.873Z,27.00
2023-03-30T22:07:51.750Z,29.20
2023-03-30T22:12:53.455Z,28.70
2023-03-30T22:17:55.211Z,32.90
2023-03-30T22:22:57.977Z,28.40
2023-03-30T22:28:01.271Z,32.10
2023-03-30T22:33:03.098Z,29.30
2023-03-30T22:38:06.450Z,31.50
2023-03-30T22:43:09.781Z,32.30
2023-03-30T22:48:11.610Z,27.50
2023-03-30T22:53:13.342Z,21.50
2023-03-30T22:58:15.897Z,26.60
2023-03-30T23:03:18.276Z,26.40
2023-03-30T23:08:21.535Z,27.90
2023-03-30T23:13:28.977Z,30.10
2023-03-30T23:18:30.776Z,52.30
2023-03-30T23:23:33.713Z,45.70
2023-03-30T23:28:37.268Z,35.50
2023-03-30T23:33:42.555Z,29.10
2023-03-30T23:38:45.432Z,35.90
2023-03-30T23:43:48.520Z,28.70
2023-03-30T23:48:57.520Z,27.30
2023-03-30T23:54:06.158Z,37.60
2023-03-30T23:59:09.822Z,30.60
